Bookmark and Share
Track history (hours):
 

Teaser

More information available from US FCC via Universal Licensing System and Coast Guard Vessel Documentation Center.

Last reported at 2013-Jul-29 11:25 UTC. Time now 2014-Apr-20 23:55 UTC.
Position N 41°25' W 070°55'.
Warning: this ship's position is months out of date.

Length 13 m.

Type: Pleasure craft. MMSI: 367490020.

NotesDate/timePositionNaut miles runAvg speedWind from/ knotsBaromVisibWave heightAir tempDewpointWater temp
2013-Jul-29 11:25N 41°25' W 070°55'0 0.0
2013-Jul-29 07:10N 41°25' W 070°55'0 0.0
2013-Jul-29 05:31N 41°25' W 070°55'0 0.0
2013-Jul-29 04:07N 41°25' W 070°55'0 0.0
2013-Jul-29 03:28N 41°25' W 070°55'0 0.0
2013-Jul-29 02:31N 41°25' W 070°55'0 0.0
2013-Jul-29 01:22N 41°25' W 070°55'0 0.0
2013-Jul-29 00:31N 41°25' W 070°55'0 0.1
2013-Jul-28 23:33N 41°26' W 070°55'6 5.5
2013-Jul-28 22:32N 41°26' W 071°02'6 6.3
2013-Jul-28 21:33N 41°26' W 071°11'7 6.6
2013-Jul-28 20:33N 41°26' W 071°19'2 2.3
2013-Jul-28 19:28N 41°29' W 071°20'  
2013-Jul-21 16:18N 41°29' W 071°20'0 0.0
2013-Jul-21 15:33N 41°29' W 071°20'0 0.0
2013-Jul-21 14:30N 41°29' W 071°20'0 0.0
2013-Jul-21 13:33N 41°29' W 071°20'0 0.0
2013-Jul-21 12:27N 41°29' W 071°20'0 0.0
2013-Jul-21 11:30N 41°29' W 071°20'0 0.0
2013-Jul-21 10:30N 41°29' W 071°20'0 0.0
2013-Jul-21 09:33N 41°29' W 071°20'0 0.0
2013-Jul-21 08:33N 41°29' W 071°20'0 0.0
2013-Jul-21 07:18N 41°29' W 071°20'0 0.0
2013-Jul-21 06:33N 41°29' W 071°20'0 0.0
2013-Jul-21 05:33N 41°29' W 071°20'0 0.0
2013-Jul-21 04:30N 41°29' W 071°20'0 0.0
2013-Jul-21 03:33N 41°29' W 071°20'0 0.0
2013-Jul-21 02:24N 41°29' W 071°20'0 0.0
2013-Jul-21 01:30N 41°29' W 071°20'0 0.0
2013-Jul-21 00:30N 41°29' W 071°20'0 0.0
2013-Jul-20 23:33N 41°29' W 071°20'0 0.0
2013-Jul-20 16:12N 41°29' W 071°20'0 0.1
2013-Jul-20 10:22N 41°28' W 071°20'0 0.0
2013-Jul-19 18:16N 41°28' W 071°20'1 0.4
2013-Jul-19 16:33N 41°29' W 071°19'0 0.2
2013-Jul-19 13:21N 41°29' W 071°20'0 0.0
2013-Jul-19 12:30N 41°29' W 071°20'0 0.0
2013-Jul-19 11:30N 41°29' W 071°20'  

Dump ship's entire track history

sailing weather and tide predictions

Teaser — WDF7969 — position and weather